createdAt,value
2023-05-19T00:01:48.437Z,12.60
2023-05-19T00:04:17.939Z,12.60
2023-05-19T00:06:48.298Z,12.70
2023-05-19T00:09:17.879Z,12.60
2023-05-19T00:11:44.627Z,12.60
2023-05-19T00:14:11.922Z,12.60
2023-05-19T00:16:38.801Z,12.60
2023-05-19T00:19:06.424Z,12.60
2023-05-19T00:21:33.272Z,12.60
2023-05-19T00:24:00.026Z,12.60
2023-05-19T00:26:27.153Z,12.50
2023-05-19T00:28:54.002Z,12.50
2023-05-19T00:31:20.778Z,12.40
2023-05-19T00:33:47.513Z,12.40
2023-05-19T00:36:14.236Z,12.40
2023-05-19T00:38:40.986Z,12.40
2023-05-19T00:41:07.742Z,12.30
2023-05-19T00:43:34.737Z,12.30
2023-05-19T00:46:01.735Z,12.40
2023-05-19T00:48:28.473Z,12.40
2023-05-19T00:50:56.321Z,12.40
2023-05-19T00:53:23.349Z,12.40
2023-05-19T00:55:50.531Z,12.30
2023-05-19T00:58:17.208Z,12.30
2023-05-19T01:00:44.391Z,12.30
2023-05-19T01:03:11.633Z,12.30
2023-05-19T01:05:39.641Z,12.30
2023-05-19T01:08:06.734Z,12.30
2023-05-19T01:10:33.632Z,12.30
2023-05-19T01:13:01.565Z,12.30
2023-05-19T01:15:28.764Z,12.30
2023-05-19T01:18:07.317Z,12.40
2023-05-19T01:20:47.325Z,12.30
2023-05-19T01:23:36.694Z,12.30
2023-05-19T01:26:03.398Z,12.30
2023-05-19T01:28:48.851Z,12.30
2023-05-19T01:31:16.958Z,12.20
2023-05-19T01:33:43.787Z,12.30
2023-05-19T01:36:11.978Z,12.20
2023-05-19T01:38:38.804Z,12.20
2023-05-19T01:41:06.495Z,12.20
2023-05-19T01:43:33.410Z,12.20
2023-05-19T01:46:00.408Z,12.30
2023-05-19T01:48:27.277Z,12.20
2023-05-19T01:50:54.965Z,12.20
2023-05-19T01:53:21.832Z,12.20
2023-05-19T01:55:49.715Z,12.10
2023-05-19T01:58:31.517Z,12.10
2023-05-19T02:00:58.268Z,12.10
2023-05-19T02:03:24.934Z,12.10
2023-05-19T02:05:54.552Z,11.90
2023-05-19T02:08:26.100Z,11.90
2023-05-19T02:10:58.129Z,11.80
2023-05-19T02:13:29.155Z,11.70
2023-05-19T02:15:57.565Z,11.70
2023-05-19T02:18:25.163Z,11.60
2023-05-19T02:20:51.935Z,11.60
2023-05-19T02:23:18.659Z,11.50
2023-05-19T02:25:47.159Z,11.50
2023-05-19T02:28:13.883Z,11.50
2023-05-19T02:30:40.578Z,11.50
2023-05-19T02:33:07.445Z,11.50
2023-05-19T02:35:34.302Z,11.40
2023-05-19T02:38:01.165Z,11.40
2023-05-19T02:40:27.844Z,11.40
2023-05-19T02:42:54.559Z,11.40
2023-05-19T02:45:21.236Z,11.40
2023-05-19T02:47:47.954Z,11.30
2023-05-19T02:50:14.607Z,11.30
2023-05-19T02:52:41.252Z,11.30
2023-05-19T02:55:08.143Z,11.30
2023-05-19T02:57:34.868Z,11.30
2023-05-19T03:00:01.700Z,11.40
2023-05-19T03:02:28.631Z,11.30
2023-05-19T03:04:55.458Z,11.30
2023-05-19T03:07:25.383Z,11.30
2023-05-19T03:09:52.564Z,11.30
2023-05-19T03:12:19.225Z,11.30
2023-05-19T03:14:46.351Z,11.20
2023-05-19T03:17:13.190Z,11.10
2023-05-19T03:19:39.912Z,11.10
2023-05-19T03:22:06.692Z,11.10
2023-05-19T03:24:33.383Z,11.20
2023-05-19T03:27:00.156Z,11.10
2023-05-19T03:29:26.810Z,11.10
2023-05-19T03:31:53.568Z,11.20
2023-05-19T03:34:20.245Z,11.20
2023-05-19T03:36:49.017Z,11.30
2023-05-19T03:39:16.172Z,11.30
2023-05-19T03:41:42.844Z,11.30
2023-05-19T03:44:10.038Z,11.30
2023-05-19T03:46:36.724Z,11.40
2023-05-19T03:49:03.473Z,11.40
2023-05-19T03:51:30.205Z,11.40
2023-05-19T03:53:57.236Z,11.50
2023-05-19T03:56:25.052Z,11.40
2023-05-19T03:58:51.779Z,11.40
2023-05-19T04:01:18.591Z,11.50
2023-05-19T04:03:45.257Z,11.50
2023-05-19T04:06:12.973Z,11.50
2023-05-19T04:08:39.893Z,11.40
2023-05-19T04:11:06.548Z,11.50
2023-05-19T04:13:34.084Z,11.50
2023-05-19T04:16:01.260Z,11.50
2023-05-19T04:18:29.180Z,11.50
2023-05-19T04:20:56.254Z,11.60
2023-05-19T04:23:22.971Z,11.60
2023-05-19T04:25:49.814Z,11.60
2023-05-19T04:28:17.937Z,11.60
2023-05-19T04:30:46.549Z,11.70
2023-05-19T04:33:13.505Z,11.90
2023-05-19T04:35:40.324Z,12.00
2023-05-19T04:38:07.566Z,12.10
2023-05-19T04:40:34.571Z,12.10
2023-05-19T04:43:02.381Z,12.20
2023-05-19T04:45:29.186Z,12.40
2023-05-19T04:47:58.181Z,12.60
2023-05-19T04:50:25.417Z,12.90
2023-05-19T04:52:52.236Z,13.20
2023-05-19T04:55:19.006Z,13.30
2023-05-19T04:57:45.665Z,13.40
2023-05-19T05:00:14.178Z,13.80
2023-05-19T05:02:42.906Z,14.00
2023-05-19T05:05:10.175Z,14.10
2023-05-19T05:07:36.908Z,14.20
2023-05-19T05:10:04.010Z,14.90
2023-05-19T05:12:31.189Z,15.80
2023-05-19T05:14:58.333Z,16.70
2023-05-19T05:17:25.754Z,17.20
2023-05-19T05:19:52.881Z,18.10
2023-05-19T05:22:19.843Z,19.40
2023-05-19T05:24:46.656Z,20.60
2023-05-19T05:27:13.724Z,20.60
2023-05-19T05:29:40.428Z,20.60
2023-05-19T05:32:08.033Z,21.70
2023-05-19T05:34:35.865Z,22.00
2023-05-19T05:37:02.585Z,21.00
2023-05-19T05:39:29.332Z,20.30
2023-05-19T05:41:56.045Z,19.80
2023-05-19T05:44:22.782Z,20.20
2023-05-19T05:46:49.631Z,20.10
2023-05-19T05:49:16.468Z,20.50
2023-05-19T05:51:54.328Z,20.80
2023-05-19T05:54:30.049Z,21.20
2023-05-19T05:56:57.082Z,22.20
2023-05-19T05:59:23.840Z,22.20
2023-05-19T06:01:50.599Z,21.90
2023-05-19T06:04:17.448Z,20.10
2023-05-19T06:06:44.213Z,19.20
2023-05-19T06:09:10.925Z,18.10
2023-05-19T06:11:37.777Z,17.10
2023-05-19T06:14:04.494Z,15.90
2023-05-19T06:16:31.380Z,15.50
2023-05-19T06:18:58.992Z,15.30
2023-05-19T06:21:26.091Z,14.90
2023-05-19T06:23:53.298Z,14.60
2023-05-19T06:26:20.083Z,14.30
2023-05-19T06:28:46.749Z,14.00
2023-05-19T06:31:13.460Z,13.80
2023-05-19T06:33:40.182Z,13.80
2023-05-19T06:36:08.431Z,13.80
2023-05-19T06:38:35.152Z,13.70
2023-05-19T06:41:01.841Z,13.70
2023-05-19T06:43:28.835Z,13.70
2023-05-19T06:45:55.504Z,13.90
2023-05-19T06:48:22.235Z,14.10
2023-05-19T06:50:48.999Z,14.20
2023-05-19T06:53:16.960Z,14.20
2023-05-19T06:55:54.796Z,14.30
2023-05-19T06:58:25.149Z,14.50
2023-05-19T07:00:51.853Z,14.50
2023-05-19T07:03:18.732Z,14.30
2023-05-19T07:05:45.965Z,14.00
2023-05-19T07:08:12.654Z,14.10
2023-05-19T07:10:39.397Z,14.00
2023-05-19T07:13:06.286Z,13.70
2023-05-19T07:15:33.132Z,13.50
2023-05-19T07:18:00.047Z,13.60
2023-05-19T07:20:26.990Z,13.70
2023-05-19T07:22:53.755Z,13.60
2023-05-19T07:25:20.770Z,13.60
2023-05-19T07:27:47.532Z,13.40
2023-05-19T07:30:14.273Z,13.50
2023-05-19T07:32:41.027Z,13.40
2023-05-19T07:35:07.894Z,13.60
2023-05-19T07:37:34.673Z,14.00
2023-05-19T07:40:01.351Z,14.10
2023-05-19T07:42:28.023Z,14.20
2023-05-19T07:44:54.729Z,14.20
2023-05-19T07:47:21.412Z,14.10
2023-05-19T07:49:50.313Z,13.90
2023-05-19T07:52:18.380Z,13.80
2023-05-19T07:54:45.900Z,14.00
2023-05-19T07:57:12.590Z,14.10
2023-05-19T07:59:39.348Z,14.10
2023-05-19T08:02:06.412Z,14.10
2023-05-19T08:04:33.340Z,14.20
2023-05-19T08:07:00.151Z,14.50
2023-05-19T08:09:26.841Z,14.40
2023-05-19T08:11:53.658Z,14.50
2023-05-19T08:14:22.747Z,14.40
2023-05-19T08:16:49.880Z,14.50
2023-05-19T08:19:16.601Z,14.30
2023-05-19T08:21:43.390Z,14.20
2023-05-19T08:24:10.169Z,14.50
2023-05-19T08:26:37.969Z,14.70
2023-05-19T08:29:04.989Z,14.80
2023-05-19T08:31:31.757Z,14.70
2023-05-19T08:33:58.543Z,14.70
2023-05-19T08:36:25.867Z,14.80
2023-05-19T08:38:52.531Z,14.70
2023-05-19T08:41:19.293Z,14.50
2023-05-19T08:43:46.105Z,14.40
2023-05-19T08:46:13.556Z,14.50
2023-05-19T08:48:42.213Z,14.60
2023-05-19T08:51:20.552Z,14.50
2023-05-19T08:53:51.359Z,14.20
2023-05-19T08:56:21.822Z,14.20
2023-05-19T08:58:49.349Z,14.30
2023-05-19T09:01:17.116Z,14.20
2023-05-19T09:03:45.166Z,14.10
2023-05-19T09:06:14.976Z,14.00
2023-05-19T09:08:42.303Z,14.00
2023-05-19T09:11:09.398Z,14.10
2023-05-19T09:13:36.100Z,14.20
2023-05-19T09:16:03.519Z,14.30
2023-05-19T09:18:30.432Z,14.30
2023-05-19T09:21:00.725Z,14.30
2023-05-19T09:23:32.653Z,14.30
2023-05-19T09:26:02.060Z,14.40
2023-05-19T09:28:33.302Z,14.30
2023-05-19T09:31:01.144Z,14.50
2023-05-19T09:33:28.674Z,14.50
2023-05-19T09:35:58.809Z,14.60
2023-05-19T09:38:26.484Z,14.40
2023-05-19T09:40:57.227Z,14.30
2023-05-19T09:43:24.235Z,14.30
2023-05-19T09:46:13.808Z,14.40
2023-05-19T09:48:41.520Z,14.40
2023-05-19T09:51:10.777Z,14.40
2023-05-19T09:53:39.173Z,14.50
2023-05-19T09:56:08.767Z,14.40
2023-05-19T09:58:36.684Z,14.40
2023-05-19T10:01:04.447Z,14.40
2023-05-19T10:03:32.961Z,14.40
2023-05-19T10:06:01.423Z,14.40
2023-05-19T10:08:29.937Z,14.40
2023-05-19T10:10:57.113Z,14.30
2023-05-19T10:13:24.249Z,14.30
2023-05-19T10:18:23.027Z,14.20
2023-05-19T10:20:50.173Z,14.40
2023-05-19T10:23:17.170Z,14.50
2023-05-19T10:25:44.245Z,14.50
2023-05-19T10:28:16.849Z,14.30
2023-05-19T10:30:46.291Z,14.40
2023-05-19T10:33:16.578Z,14.40
2023-05-19T10:35:58.460Z,14.30
2023-05-19T10:38:48.436Z,14.30
2023-05-19T10:41:38.422Z,14.30
2023-05-19T10:44:12.182Z,14.40
2023-05-19T10:46:40.191Z,14.40
2023-05-19T10:49:09.660Z,14.20
2023-05-19T10:51:37.248Z,14.20
2023-05-19T10:54:10.434Z,14.10
2023-05-19T10:56:42.496Z,14.10
2023-05-19T10:59:29.645Z,14.20
2023-05-19T11:01:56.523Z,14.30
2023-05-19T11:04:39.272Z,14.40
2023-05-19T11:07:06.245Z,14.40
2023-05-19T11:09:40.405Z,14.30
2023-05-19T11:12:08.391Z,14.20
2023-05-19T11:14:35.084Z,14.20
2023-05-19T11:17:01.812Z,14.20
2023-05-19T11:19:31.412Z,14.20
2023-05-19T11:22:07.954Z,14.20
2023-05-19T11:24:37.461Z,14.30
2023-05-19T11:27:23.018Z,14.50
2023-05-19T11:29:49.907Z,14.60
2023-05-19T11:32:16.965Z,14.60
2023-05-19T11:34:48.259Z,14.80
2023-05-19T11:37:15.015Z,14.90
2023-05-19T11:39:41.849Z,14.90
2023-05-19T11:42:09.680Z,14.90
2023-05-19T11:44:36.789Z,14.90
2023-05-19T11:47:04.417Z,15.00
2023-05-19T11:49:31.445Z,15.00
2023-05-19T11:51:59.810Z,15.00
2023-05-19T11:54:30.359Z,15.10
2023-05-19T11:56:57.853Z,15.00
2023-05-19T11:59:32.788Z,15.20
2023-05-19T12:02:15.605Z,15.10
2023-05-19T12:04:42.512Z,15.10
2023-05-19T12:07:11.952Z,15.20
2023-05-19T12:09:38.654Z,15.40
2023-05-19T12:12:05.583Z,15.60
2023-05-19T12:14:32.301Z,15.50
2023-05-19T12:16:59.486Z,15.50
2023-05-19T12:19:26.575Z,15.50
2023-05-19T12:21:53.917Z,15.40
2023-05-19T12:24:20.726Z,15.30
2023-05-19T12:26:50.263Z,15.30
2023-05-19T12:29:17.187Z,15.40
2023-05-19T12:31:46.392Z,15.40
2023-05-19T12:34:13.333Z,15.50
2023-05-19T12:36:41.150Z,15.40
2023-05-19T12:39:07.997Z,15.20
2023-05-19T12:41:34.700Z,15.10
2023-05-19T12:44:01.385Z,15.00
2023-05-19T12:46:28.114Z,14.90
2023-05-19T12:48:59.536Z,14.80
2023-05-19T12:51:26.323Z,14.70
2023-05-19T12:53:53.045Z,14.70
2023-05-19T12:56:19.845Z,14.70
2023-05-19T12:58:46.745Z,14.70
2023-05-19T13:01:17.509Z,14.80
2023-05-19T13:03:44.901Z,14.90
2023-05-19T13:06:11.863Z,15.00
2023-05-19T13:08:41.220Z,15.30
2023-05-19T13:11:08.014Z,15.50
2023-05-19T13:13:34.824Z,15.60
2023-05-19T13:16:01.529Z,15.50
2023-05-19T13:18:28.298Z,15.60
2023-05-19T13:20:55.031Z,15.80
2023-05-19T13:23:21.721Z,15.90
2023-05-19T13:25:50.607Z,16.00
2023-05-19T13:28:17.438Z,16.00
2023-05-19T13:30:44.681Z,15.80
2023-05-19T13:33:12.007Z,15.80
2023-05-19T13:35:39.197Z,15.70
2023-05-19T13:38:06.822Z,15.60
2023-05-19T13:40:34.971Z,15.60
2023-05-19T13:43:02.684Z,15.70
2023-05-19T13:45:29.486Z,15.50
2023-05-19T13:47:56.581Z,15.60
2023-05-19T13:50:23.515Z,15.50
2023-05-19T13:52:50.232Z,15.50
2023-05-19T13:55:17.028Z,15.30
2023-05-19T13:57:44.327Z,15.30
2023-05-19T14:00:11.495Z,15.20
2023-05-19T14:02:38.333Z,15.20
2023-05-19T14:05:05.838Z,15.30
2023-05-19T14:07:34.719Z,15.30
2023-05-19T14:10:02.459Z,15.40
2023-05-19T14:12:38.006Z,15.50
2023-05-19T14:15:14.375Z,15.50
2023-05-19T14:17:41.218Z,15.60
2023-05-19T14:20:08.516Z,15.60
2023-05-19T14:22:35.264Z,15.50
2023-05-19T14:25:02.143Z,15.40
2023-05-19T14:27:28.882Z,15.40
2023-05-19T14:29:55.744Z,15.30
2023-05-19T14:32:22.558Z,15.30
2023-05-19T14:34:52.782Z,15.40
2023-05-19T14:37:19.850Z,15.60
2023-05-19T14:39:46.556Z,15.70
2023-05-19T14:42:13.275Z,15.70
2023-05-19T14:44:39.967Z,15.70
2023-05-19T14:47:07.536Z,15.90
2023-05-19T14:49:34.482Z,16.00
2023-05-19T14:52:01.339Z,16.10
2023-05-19T14:54:28.213Z,16.30
2023-05-19T14:56:54.904Z,16.40
2023-05-19T14:59:21.811Z,16.40
2023-05-19T15:01:48.654Z,16.30
2023-05-19T15:04:15.566Z,16.10
2023-05-19T15:06:42.438Z,16.20
2023-05-19T15:09:09.493Z,16.30
2023-05-19T15:11:36.155Z,16.40
2023-05-19T15:14:02.818Z,16.20
2023-05-19T15:16:29.689Z,16.10
2023-05-19T15:18:56.871Z,16.00
2023-05-19T15:21:23.634Z,16.10
2023-05-19T15:23:50.391Z,16.10
2023-05-19T15:26:17.162Z,16.10
2023-05-19T15:28:43.898Z,16.00
2023-05-19T15:31:10.723Z,16.00
2023-05-19T15:33:37.490Z,15.90
2023-05-19T15:36:04.267Z,16.00
2023-05-19T15:38:35.141Z,16.00
2023-05-19T15:41:05.930Z,16.00
2023-05-19T15:43:32.586Z,16.20
2023-05-19T15:45:59.414Z,16.50
2023-05-19T15:48:28.800Z,16.70
2023-05-19T15:50:58.145Z,16.70
2023-05-19T15:53:25.325Z,16.50
2023-05-19T15:55:52.089Z,16.60
2023-05-19T15:58:18.845Z,16.70
2023-05-19T16:00:45.715Z,16.80
2023-05-19T16:03:12.677Z,17.10
2023-05-19T16:05:39.407Z,17.20
2023-05-19T16:08:08.494Z,17.10
2023-05-19T16:10:35.773Z,17.20
2023-05-19T16:13:02.614Z,17.40
2023-05-19T16:15:29.356Z,17.60
2023-05-19T16:17:56.852Z,17.70
2023-05-19T16:20:26.882Z,17.50
2023-05-19T16:22:54.116Z,17.20
2023-05-19T16:25:21.172Z,17.40
2023-05-19T16:27:47.899Z,17.60
2023-05-19T16:30:14.709Z,17.70
2023-05-19T16:32:41.598Z,17.70
2023-05-19T16:35:08.694Z,18.00
2023-05-19T16:37:35.433Z,18.20
2023-05-19T16:40:02.187Z,18.10
2023-05-19T16:42:28.882Z,18.00
2023-05-19T16:44:55.656Z,17.90
2023-05-19T16:47:22.384Z,17.90
2023-05-19T16:49:49.258Z,17.70
2023-05-19T16:52:16.073Z,17.70
2023-05-19T16:54:42.821Z,17.70
2023-05-19T16:57:09.862Z,17.60
2023-05-19T16:59:36.603Z,17.40
2023-05-19T17:02:03.497Z,17.30
2023-05-19T17:04:30.942Z,17.40
2023-05-19T17:06:57.877Z,17.50
2023-05-19T17:09:26.380Z,17.50
2023-05-19T17:11:53.482Z,17.40
2023-05-19T17:14:20.967Z,17.30
2023-05-19T17:16:47.845Z,17.30
2023-05-19T17:19:16.246Z,17.40
2023-05-19T17:21:43.128Z,17.30
2023-05-19T17:24:09.856Z,17.50
2023-05-19T17:26:36.632Z,17.50
2023-05-19T17:29:03.491Z,17.50
2023-05-19T17:31:30.200Z,17.50
2023-05-19T17:33:56.910Z,17.50
2023-05-19T17:36:23.546Z,17.50
2023-05-19T17:38:50.350Z,17.30
2023-05-19T17:41:17.056Z,17.40
2023-05-19T17:43:43.948Z,17.50
2023-05-19T17:46:11.780Z,17.40
2023-05-19T17:48:39.739Z,17.30
2023-05-19T17:51:09.513Z,17.30
2023-05-19T17:53:36.636Z,17.20
2023-05-19T17:56:04.096Z,17.10
2023-05-19T17:58:31.019Z,17.00
2023-05-19T18:00:57.873Z,16.90
2023-05-19T18:03:24.824Z,16.90
2023-05-19T18:05:51.705Z,16.90
2023-05-19T18:08:18.702Z,16.80
2023-05-19T18:10:46.185Z,16.80
2023-05-19T18:13:15.966Z,16.80
2023-05-19T18:15:42.837Z,16.70
2023-05-19T18:18:10.894Z,16.60
2023-05-19T18:20:38.777Z,16.60
2023-05-19T18:23:05.980Z,16.50
2023-05-19T18:25:32.660Z,16.40
2023-05-19T18:27:59.370Z,16.30
2023-05-19T18:30:26.101Z,16.30
2023-05-19T18:32:52.951Z,16.10
2023-05-19T18:35:21.101Z,16.10
2023-05-19T18:37:47.836Z,16.00
2023-05-19T18:40:14.571Z,15.90
2023-05-19T18:42:41.269Z,15.70
2023-05-19T18:45:08.179Z,15.60
2023-05-19T18:47:34.996Z,15.50
2023-05-19T18:50:01.728Z,15.40
2023-05-19T18:52:29.116Z,15.20
2023-05-19T18:54:55.903Z,15.10
2023-05-19T18:57:22.624Z,14.90
2023-05-19T18:59:49.325Z,14.80
2023-05-19T19:02:15.984Z,14.70
2023-05-19T19:04:42.757Z,14.50
2023-05-19T19:07:09.484Z,14.40
2023-05-19T19:09:36.226Z,14.30
2023-05-19T19:12:03.071Z,14.20
2023-05-19T19:14:29.782Z,14.10
2023-05-19T19:16:56.564Z,14.00
2023-05-19T19:19:23.807Z,14.00
2023-05-19T19:21:50.758Z,13.90
2023-05-19T19:24:17.451Z,13.70
2023-05-19T19:26:44.168Z,13.60
2023-05-19T19:29:10.925Z,13.60
2023-05-19T19:31:37.718Z,13.60
2023-05-19T19:34:09.143Z,13.60
2023-05-19T19:36:35.982Z,13.60
2023-05-19T19:39:02.690Z,13.60
2023-05-19T19:41:29.849Z,13.50
2023-05-19T19:43:56.521Z,13.50
2023-05-19T19:46:23.300Z,13.40
2023-05-19T19:48:50.081Z,13.40
2023-05-19T19:51:16.794Z,13.40
2023-05-19T19:53:43.635Z,13.30
2023-05-19T19:56:10.359Z,13.30
2023-05-19T19:58:37.113Z,13.20
2023-05-19T20:01:04.183Z,13.20
2023-05-19T20:03:31.823Z,13.20
2023-05-19T20:05:58.801Z,13.20
2023-05-19T20:08:25.985Z,13.10
2023-05-19T20:10:53.112Z,13.20
2023-05-19T20:13:20.155Z,13.20
2023-05-19T20:15:47.122Z,13.10
2023-05-19T20:18:13.895Z,13.10
2023-05-19T20:20:41.019Z,13.10
2023-05-19T20:23:08.023Z,13.10
2023-05-19T20:25:50.166Z,13.10
2023-05-19T20:28:26.311Z,13.10
2023-05-19T20:30:53.065Z,13.10
2023-05-19T20:33:19.746Z,13.10
2023-05-19T20:35:46.517Z,13.10
2023-05-19T20:38:13.255Z,13.10
2023-05-19T20:40:40.058Z,13.10
2023-05-19T20:43:06.819Z,13.10
2023-05-19T20:45:33.814Z,13.10
2023-05-19T20:48:02.697Z,13.10
2023-05-19T20:50:29.611Z,13.00
2023-05-19T20:52:56.366Z,13.00
2023-05-19T20:55:22.999Z,12.90
2023-05-19T20:57:49.758Z,13.00
2023-05-19T21:00:16.564Z,13.00
2023-05-19T21:02:44.227Z,13.00
2023-05-19T21:05:11.255Z,13.00
2023-05-19T21:07:38.092Z,13.00
2023-05-19T21:10:05.067Z,13.00
2023-05-19T21:12:34.268Z,13.00
2023-05-19T21:15:01.635Z,13.00
2023-05-19T21:17:28.445Z,13.00
2023-05-19T21:19:58.237Z,13.00
2023-05-19T21:22:25.429Z,13.00
2023-05-19T21:24:52.616Z,13.00
2023-05-19T21:27:19.495Z,13.00
2023-05-19T21:29:46.373Z,13.00
2023-05-19T21:32:13.122Z,12.90
2023-05-19T21:34:39.967Z,12.90
2023-05-19T21:37:06.658Z,13.00
2023-05-19T21:39:33.363Z,13.00
2023-05-19T21:42:00.032Z,13.00
2023-05-19T21:44:26.886Z,13.00
2023-05-19T21:46:53.721Z,12.90
2023-05-19T21:49:20.533Z,12.90
2023-05-19T21:51:47.257Z,12.90
2023-05-19T21:54:13.963Z,12.90
2023-05-19T21:56:40.681Z,12.90
2023-05-19T21:59:07.465Z,12.80
2023-05-19T22:01:34.235Z,12.80
2023-05-19T22:04:01.325Z,12.80
2023-05-19T22:06:28.098Z,12.80
2023-05-19T22:08:54.807Z,12.80
2023-05-19T22:11:21.812Z,12.70
2023-05-19T22:13:48.534Z,12.60
2023-05-19T22:16:15.281Z,12.60
2023-05-19T22:18:42.013Z,12.60
2023-05-19T22:21:08.736Z,12.60
2023-05-19T22:23:35.423Z,12.50
2023-05-19T22:26:02.143Z,12.50
2023-05-19T22:28:28.848Z,12.50
2023-05-19T22:30:55.546Z,12.50
2023-05-19T22:33:22.281Z,12.50
2023-05-19T22:35:48.952Z,12.40
2023-05-19T22:38:15.680Z,12.40
2023-05-19T22:40:42.398Z,12.30
2023-05-19T22:43:09.127Z,12.30
2023-05-19T22:45:38.857Z,12.30
2023-05-19T22:48:05.763Z,12.30
2023-05-19T22:50:32.524Z,12.30
2023-05-19T22:52:59.258Z,12.30
2023-05-19T22:55:25.927Z,12.30
2023-05-19T22:57:52.675Z,12.20
2023-05-19T23:00:20.823Z,12.20
2023-05-19T23:02:47.576Z,12.30
2023-05-19T23:05:14.307Z,12.30
2023-05-19T23:07:41.001Z,12.30
2023-05-19T23:10:07.862Z,12.30
2023-05-19T23:12:34.866Z,12.30
2023-05-19T23:15:02.242Z,12.20
2023-05-19T23:17:28.995Z,12.20
2023-05-19T23:19:55.806Z,12.20
2023-05-19T23:22:22.536Z,12.20
2023-05-19T23:24:49.357Z,12.20
2023-05-19T23:27:16.088Z,12.20
2023-05-19T23:29:46.478Z,12.20
2023-05-19T23:32:13.195Z,12.10
2023-05-19T23:34:39.839Z,12.10
2023-05-19T23:37:06.722Z,12.10
2023-05-19T23:39:33.425Z,12.20
2023-05-19T23:42:00.205Z,12.10
2023-05-19T23:44:27.295Z,12.10
2023-05-19T23:46:54.054Z,12.10
2023-05-19T23:49:20.900Z,12.10
2023-05-19T23:51:47.650Z,12.10
2023-05-19T23:54:14.306Z,12.00
2023-05-19T23:56:41.019Z,12.00
2023-05-19T23:59:07.717Z,11.90
